sensor_id;sensor_type;location;lat;lon;timestamp;pressure;altitude;pressure_sealevel;temperature;humidity
27864;BME280;15980;51.092;13.916;2024-02-15T00:05:05;98961.63;;;9.00;95.82
27864;BME280;15980;51.092;13.916;2024-02-15T00:15:05;98949.41;;;8.80;95.94
27864;BME280;15980;51.092;13.916;2024-02-15T00:25:06;98962.91;;;8.59;96.35
27864;BME280;15980;51.092;13.916;2024-02-15T00:35:06;98957.59;;;8.37;96.89
27864;BME280;15980;51.092;13.916;2024-02-15T00:45:07;98951.63;;;8.35;96.99
27864;BME280;15980;51.092;13.916;2024-02-15T00:55:07;98937.59;;;8.28;97.59
27864;BME280;15980;51.092;13.916;2024-02-15T01:05:08;98950.84;;;8.43;97.57
27864;BME280;15980;51.092;13.916;2024-02-15T01:15:08;98945.22;;;8.65;96.93
27864;BME280;15980;51.092;13.916;2024-02-15T01:25:09;98952.81;;;8.77;97.20
27864;BME280;15980;51.092;13.916;2024-02-15T01:35:09;98943.47;;;8.87;96.77
27864;BME280;15980;51.092;13.916;2024-02-15T01:45:09;98934.91;;;8.97;96.65
27864;BME280;15980;51.092;13.916;2024-02-15T01:55:10;98934.59;;;8.98;96.73
27864;BME280;15980;51.092;13.916;2024-02-15T02:05:10;98933.13;;;9.01;96.27
27864;BME280;15980;51.092;13.916;2024-02-15T02:15:11;98943.44;;;9.12;97.05
27864;BME280;15980;51.092;13.916;2024-02-15T02:25:11;98931.19;;;9.19;97.43
27864;BME280;15980;51.092;13.916;2024-02-15T02:35:12;98926.22;;;9.12;97.32
27864;BME280;15980;51.092;13.916;2024-02-15T02:45:12;98920.41;;;9.22;98.51
27864;BME280;15980;51.092;13.916;2024-02-15T02:55:12;98921.50;;;9.30;98.19
27864;BME280;15980;51.092;13.916;2024-02-15T03:05:13;98916.00;;;9.38;98.42
27864;BME280;15980;51.092;13.916;2024-02-15T03:15:13;98920.00;;;9.41;98.91
27864;BME280;15980;51.092;13.916;2024-02-15T03:25:14;98913.84;;;9.53;99.09
27864;BME280;15980;51.092;13.916;2024-02-15T03:35:15;98913.34;;;9.59;98.19
27864;BME280;15980;51.092;13.916;2024-02-15T03:45:15;98920.25;;;9.65;98.07
27864;BME280;15980;51.092;13.916;2024-02-15T03:55:16;98911.72;;;9.67;98.50
27864;BME280;15980;51.092;13.916;2024-02-15T04:05:16;98924.44;;;9.71;97.80
27864;BME280;15980;51.092;13.916;2024-02-15T04:15:17;98925.69;;;9.74;97.32
27864;BME280;15980;51.092;13.916;2024-02-15T04:25:17;98929.56;;;9.73;97.52
27864;BME280;15980;51.092;13.916;2024-02-15T04:35:17;98929.63;;;9.64;97.11
27864;BME280;15980;51.092;13.916;2024-02-15T04:45:18;98938.16;;;9.63;97.32
27864;BME280;15980;51.092;13.916;2024-02-15T04:55:18;98919.66;;;9.60;97.48
27864;BME280;15980;51.092;13.916;2024-02-15T05:05:19;98931.50;;;9.72;98.04
27864;BME280;15980;51.092;13.916;2024-02-15T05:15:19;98943.41;;;9.76;97.60
27864;BME280;15980;51.092;13.916;2024-02-15T05:25:20;98943.22;;;9.82;97.31
27864;BME280;15980;51.092;13.916;2024-02-15T05:35:21;98950.47;;;9.86;97.59
27864;BME280;15980;51.092;13.916;2024-02-15T05:55:25;98952.25;;;9.82;98.16
27864;BME280;15980;51.092;13.916;2024-02-15T06:05:26;98958.88;;;9.81;100.00
27864;BME280;15980;51.092;13.916;2024-02-15T06:15:26;98969.97;;;9.85;100.00
27864;BME280;15980;51.092;13.916;2024-02-15T06:25:26;98980.63;;;9.86;100.00
27864;BME280;15980;51.092;13.916;2024-02-15T06:35:27;98982.69;;;9.89;100.00
27864;BME280;15980;51.092;13.916;2024-02-15T06:45:27;98997.69;;;9.92;100.00
27864;BME280;15980;51.092;13.916;2024-02-15T06:55:27;99004.63;;;9.89;100.00
27864;BME280;15980;51.092;13.916;2024-02-15T07:05:28;98998.63;;;9.96;100.00
27864;BME280;15980;51.092;13.916;2024-02-15T07:15:28;98994.69;;;10.23;100.00
27864;BME280;15980;51.092;13.916;2024-02-15T07:25:28;98991.34;;;10.47;100.00
27864;BME280;15980;51.092;13.916;2024-02-15T07:35:28;98983.13;;;10.67;100.00
27864;BME280;15980;51.092;13.916;2024-02-15T07:45:29;98986.56;;;10.85;100.00
27864;BME280;15980;51.092;13.916;2024-02-15T07:55:29;98993.91;;;10.93;100.00
27864;BME280;15980;51.092;13.916;2024-02-15T08:05:29;98991.94;;;11.15;100.00
27864;BME280;15980;51.092;13.916;2024-02-15T08:15:30;98998.16;;;11.57;99.30
27864;BME280;15980;51.092;13.916;2024-02-15T08:25:30;98968.03;;;12.06;97.40
27864;BME280;15980;51.092;13.916;2024-02-15T08:35:30;98954.97;;;12.27;95.09
27864;BME280;15980;51.092;13.916;2024-02-15T08:45:31;98956.81;;;12.35;94.58
27864;BME280;15980;51.092;13.916;2024-02-15T08:55:31;98969.03;;;12.74;93.36
27864;BME280;15980;51.092;13.916;2024-02-15T09:05:31;98980.72;;;13.24;90.25
27864;BME280;15980;51.092;13.916;2024-02-15T09:15:32;98990.94;;;13.51;88.29
27864;BME280;15980;51.092;13.916;2024-02-15T09:25:32;98991.22;;;13.62;87.37
27864;BME280;15980;51.092;13.916;2024-02-15T09:35:32;98981.56;;;13.99;86.57
27864;BME280;15980;51.092;13.916;2024-02-15T09:45:32;98990.09;;;14.10;84.41
27864;BME280;15980;51.092;13.916;2024-02-15T09:55:34;98996.44;;;13.95;84.70
27864;BME280;15980;51.092;13.916;2024-02-15T10:05:35;99003.22;;;13.69;85.56
27864;BME280;15980;51.092;13.916;2024-02-15T10:15:39;98996.28;;;13.60;86.27
27864;BME280;15980;51.092;13.916;2024-02-15T10:25:40;98986.41;;;13.59;87.14
27864;BME280;15980;51.092;13.916;2024-02-15T10:35:40;98984.03;;;13.73;86.76
27864;BME280;15980;51.092;13.916;2024-02-15T10:45:41;98985.97;;;13.57;86.40
27864;BME280;15980;51.092;13.916;2024-02-15T10:56:03;98965.78;;;13.52;87.40
27864;BME280;15980;51.092;13.916;2024-02-15T11:06:09;98967.38;;;13.85;87.14
27864;BME280;15980;51.092;13.916;2024-02-15T11:16:10;98963.94;;;13.88;86.42
27864;BME280;15980;51.092;13.916;2024-02-15T11:26:43;98954.13;;;13.75;85.77
27864;BME280;15980;51.092;13.916;2024-02-15T11:36:43;98961.25;;;13.60;86.45
27864;BME280;15980;51.092;13.916;2024-02-15T11:46:43;98943.19;;;13.47;87.25
27864;BME280;15980;51.092;13.916;2024-02-15T12:06:44;98938.38;;;13.75;87.92
27864;BME280;15980;51.092;13.916;2024-02-15T12:16:44;98936.81;;;14.57;83.92
27864;BME280;15980;51.092;13.916;2024-02-15T12:26:45;98937.84;;;15.45;79.77
27864;BME280;15980;51.092;13.916;2024-02-15T12:36:45;98929.75;;;14.94;80.22
27864;BME280;15980;51.092;13.916;2024-02-15T12:46:45;98909.56;;;14.55;81.67
27864;BME280;15980;51.092;13.916;2024-02-15T12:56:46;98909.44;;;14.67;81.25
27864;BME280;15980;51.092;13.916;2024-02-15T13:06:46;98920.75;;;14.62;81.18
27864;BME280;15980;51.092;13.916;2024-02-15T13:16:46;98897.47;;;14.79;82.36
27864;BME280;15980;51.092;13.916;2024-02-15T13:26:47;98901.09;;;15.02;80.33
27864;BME280;15980;51.092;13.916;2024-02-15T13:36:47;98903.25;;;15.13;79.41
27864;BME280;15980;51.092;13.916;2024-02-15T13:46:47;98891.38;;;15.54;78.00
27864;BME280;15980;51.092;13.916;2024-02-15T13:56:47;98884.94;;;15.24;77.12
27864;BME280;15980;51.092;13.916;2024-02-15T14:06:48;98884.56;;;15.25;77.64
27864;BME280;15980;51.092;13.916;2024-02-15T14:16:48;98882.28;;;15.31;76.22
27864;BME280;15980;51.092;13.916;2024-02-15T14:26:48;98883.47;;;15.53;76.61
27864;BME280;15980;51.092;13.916;2024-02-15T14:36:49;98874.19;;;15.61;78.21
27864;BME280;15980;51.092;13.916;2024-02-15T14:46:49;98868.91;;;15.33;78.92
27864;BME280;15980;51.092;13.916;2024-02-15T14:56:49;98870.28;;;14.81;78.78
27864;BME280;15980;51.092;13.916;2024-02-15T15:06:50;98864.75;;;14.81;79.49
27864;BME280;15980;51.092;13.916;2024-02-15T15:16:50;98878.31;;;14.51;80.29
27864;BME280;15980;51.092;13.916;2024-02-15T15:26:50;98871.66;;;14.01;81.37
27864;BME280;15980;51.092;13.916;2024-02-15T15:36:51;98874.78;;;13.68;83.38
27864;BME280;15980;51.092;13.916;2024-02-15T15:46:51;98867.84;;;13.43;84.07
27864;BME280;15980;51.092;13.916;2024-02-15T15:56:51;98860.59;;;13.07;85.13
27864;BME280;15980;51.092;13.916;2024-02-15T16:06:51;98839.88;;;12.69;86.99
27864;BME280;15980;51.092;13.916;2024-02-15T16:16:52;98840.84;;;12.49;87.17
27864;BME280;15980;51.092;13.916;2024-02-15T16:26:52;98845.19;;;12.10;88.72
27864;BME280;15980;51.092;13.916;2024-02-15T16:36:52;98864.59;;;11.89;89.40
27864;BME280;15980;51.092;13.916;2024-02-15T16:46:53;98865.09;;;11.70;90.85
27864;BME280;15980;51.092;13.916;2024-02-15T16:56:53;98867.97;;;11.61;91.26
27864;BME280;15980;51.092;13.916;2024-02-15T17:06:53;98866.03;;;11.50;91.54
27864;BME280;15980;51.092;13.916;2024-02-15T17:16:54;98855.84;;;11.50;92.41
27864;BME280;15980;51.092;13.916;2024-02-15T17:26:54;98854.47;;;11.44;92.96
27864;BME280;15980;51.092;13.916;2024-02-15T17:36:54;98890.06;;;11.41;93.15
27864;BME280;15980;51.092;13.916;2024-02-15T17:46:54;98885.13;;;11.34;92.92
27864;BME280;15980;51.092;13.916;2024-02-15T17:56:55;98869.75;;;11.21;93.51
27864;BME280;15980;51.092;13.916;2024-02-15T18:06:55;98850.97;;;11.11;93.90
27864;BME280;15980;51.092;13.916;2024-02-15T18:16:55;98860.78;;;10.99;94.22
27864;BME280;15980;51.092;13.916;2024-02-15T18:26:55;98862.84;;;10.69;95.11
27864;BME280;15980;51.092;13.916;2024-02-15T18:36:56;98862.28;;;10.43;96.02
27864;BME280;15980;51.092;13.916;2024-02-15T18:46:56;98861.25;;;10.27;96.32
27864;BME280;15980;51.092;13.916;2024-02-15T18:56:56;98849.34;;;10.23;97.51
27864;BME280;15980;51.092;13.916;2024-02-15T19:06:57;98838.53;;;10.18;98.29
27864;BME280;15980;51.092;13.916;2024-02-15T19:16:57;98841.88;;;10.02;98.80
27864;BME280;15980;51.092;13.916;2024-02-15T19:26:57;98843.38;;;9.91;100.00
27864;BME280;15980;51.092;13.916;2024-02-15T19:36:57;98843.91;;;9.85;100.00
27864;BME280;15980;51.092;13.916;2024-02-15T19:46:58;98836.69;;;9.80;100.00
27864;BME280;15980;51.092;13.916;2024-02-15T19:56:58;98833.19;;;9.71;100.00
27864;BME280;15980;51.092;13.916;2024-02-15T20:06:59;98851.97;;;9.52;100.00
27864;BME280;15980;51.092;13.916;2024-02-15T20:16:59;98855.09;;;9.41;100.00
27864;BME280;15980;51.092;13.916;2024-02-15T20:26:59;98856.66;;;9.51;100.00
27864;BME280;15980;51.092;13.916;2024-02-15T20:36:59;98859.06;;;9.53;100.00
27864;BME280;15980;51.092;13.916;2024-02-15T20:47:00;98856.06;;;9.37;100.00
27864;BME280;15980;51.092;13.916;2024-02-15T20:57:00;98841.38;;;9.12;100.00
27864;BME280;15980;51.092;13.916;2024-02-15T21:07:00;98821.59;;;8.89;100.00
27864;BME280;15980;51.092;13.916;2024-02-15T21:17:01;98821.00;;;8.66;100.00
27864;BME280;15980;51.092;13.916;2024-02-15T21:27:01;98817.66;;;8.52;100.00
27864;BME280;15980;51.092;13.916;2024-02-15T21:37:01;98808.63;;;8.52;100.00
27864;BME280;15980;51.092;13.916;2024-02-15T21:47:02;98790.78;;;8.54;100.00
27864;BME280;15980;51.092;13.916;2024-02-15T21:57:03;98789.94;;;8.62;100.00
27864;BME280;15980;51.092;13.916;2024-02-15T22:07:04;98763.09;;;8.73;100.00
27864;BME280;15980;51.092;13.916;2024-02-15T22:17:04;98733.94;;;8.77;100.00
27864;BME280;15980;51.092;13.916;2024-02-15T22:27:05;98728.28;;;8.82;100.00
27864;BME280;15980;51.092;13.916;2024-02-15T22:37:05;98750.31;;;8.86;100.00
27864;BME280;15980;51.092;13.916;2024-02-15T22:47:05;98748.72;;;8.85;100.00
27864;BME280;15980;51.092;13.916;2024-02-15T22:57:06;98743.56;;;8.83;100.00
27864;BME280;15980;51.092;13.916;2024-02-15T23:07:06;98750.50;;;8.80;100.00
27864;BME280;15980;51.092;13.916;2024-02-15T23:17:06;98752.91;;;8.82;100.00
27864;BME280;15980;51.092;13.916;2024-02-15T23:27:06;98755.66;;;8.82;100.00
27864;BME280;15980;51.092;13.916;2024-02-15T23:37:07;98771.13;;;8.69;100.00
27864;BME280;15980;51.092;13.916;2024-02-15T23:47:07;98754.88;;;8.64;100.00
27864;BME280;15980;51.092;13.916;2024-02-15T23:57:07;98730.09;;;8.69;100.00
